createdAt,value
2018-02-09T00:02:08.288Z,98487.20
2018-02-09T00:04:36.576Z,98484.13
2018-02-09T00:07:04.867Z,98487.70
2018-02-09T00:09:33.920Z,98480.25
2018-02-09T00:12:02.239Z,98482.22
2018-02-09T00:14:30.518Z,98491.85
2018-02-09T00:16:58.825Z,98486.91
2018-02-09T00:19:27.138Z,98487.91
2018-02-09T00:21:55.402Z,98483.63
2018-02-09T00:24:23.730Z,98484.02
2018-02-09T00:26:52.055Z,98481.59
2018-02-09T00:29:21.125Z,98482.78
2018-02-09T00:31:49.685Z,98488.61
2018-02-09T00:34:17.954Z,98484.42
2018-02-09T00:36:46.237Z,98484.19
2018-02-09T00:39:14.557Z,98475.84
2018-02-09T00:41:43.607Z,98480.94
2018-02-09T00:44:11.918Z,98480.02
2018-02-09T00:46:40.189Z,98476.17
2018-02-09T00:49:08.479Z,98476.13
2018-02-09T00:51:38.729Z,98482.60
2018-02-09T00:54:07.012Z,98469.80
2018-02-09T00:56:35.318Z,98477.08
2018-02-09T00:59:03.599Z,98476.80
2018-02-09T01:01:31.876Z,98468.97
2018-02-09T01:04:00.223Z,98463.83
2018-02-09T01:06:28.532Z,98456.41
2018-02-09T01:08:56.809Z,98456.30
2018-02-09T01:11:25.107Z,98454.95
2018-02-09T01:13:53.396Z,98450.83
2018-02-09T01:16:21.712Z,98454.27
2018-02-09T01:18:50.038Z,98450.80
2018-02-09T01:21:18.321Z,98448.50
2018-02-09T01:23:46.600Z,98441.47
2018-02-09T01:26:14.909Z,98439.55
2018-02-09T01:28:43.970Z,98444.19
2018-02-09T01:31:12.516Z,98440.38
2018-02-09T01:33:40.808Z,98443.27
2018-02-09T01:36:09.079Z,98433.81
2018-02-09T01:38:37.384Z,98438.13
2018-02-09T01:41:05.654Z,98434.31
2018-02-09T01:43:33.971Z,98432.16
2018-02-09T01:46:03.040Z,98428.91
2018-02-09T01:48:31.321Z,98424.27
2018-02-09T01:50:59.660Z,98426.52
2018-02-09T01:53:27.965Z,98431.56
2018-02-09T01:55:56.260Z,98429.86
2018-02-09T01:58:24.561Z,98428.61
2018-02-09T02:00:53.611Z,98427.02
2018-02-09T02:03:22.676Z,98425.22
2018-02-09T02:05:50.967Z,98424.02
2018-02-09T02:08:19.278Z,98427.50
2018-02-09T02:10:47.544Z,98424.34
2018-02-09T02:13:15.827Z,98429.88
2018-02-09T02:15:44.140Z,98426.20
2018-02-09T02:18:13.192Z,98425.84
2018-02-09T02:20:41.517Z,98425.42
2018-02-09T02:23:10.549Z,98423.78
2018-02-09T02:25:38.841Z,98418.94
2018-02-09T02:28:07.135Z,98415.93
2018-02-09T02:30:35.446Z,98404.10
2018-02-09T02:33:04.512Z,98406.35
2018-02-09T02:35:32.801Z,98412.95
2018-02-09T02:38:01.091Z,98408.95
2018-02-09T02:40:29.388Z,98411.92
2018-02-09T02:42:57.684Z,98401.59
2018-02-09T02:45:26.010Z,98399.51
2018-02-09T02:47:54.287Z,98399.55
2018-02-09T02:50:22.582Z,98403.27
2018-02-09T02:52:50.912Z,98395.70
2018-02-09T02:55:19.202Z,98395.01
2018-02-09T02:57:47.489Z,98399.16
2018-02-09T03:00:15.818Z,98394.75
2018-02-09T03:02:44.889Z,98393.20
2018-02-09T03:05:13.206Z,98387.94
2018-02-09T03:07:42.308Z,98379.23
2018-02-09T03:10:10.621Z,98375.83
2018-02-09T03:12:38.917Z,98379.36
2018-02-09T03:15:07.197Z,98370.33
2018-02-09T03:17:35.539Z,98372.02
2018-02-09T03:20:03.815Z,98366.24
2018-02-09T03:22:32.126Z,98364.36
2018-02-09T03:25:00.404Z,98367.58
2018-02-09T03:27:28.690Z,98372.75
2018-02-09T03:29:57.049Z,98367.91
2018-02-09T03:32:25.338Z,98366.80
2018-02-09T03:34:53.654Z,98359.81
2018-02-09T03:37:21.953Z,98357.58
2018-02-09T03:39:50.229Z,98358.54
2018-02-09T03:42:18.557Z,98355.52
2018-02-09T03:44:46.878Z,98354.05
2018-02-09T03:47:15.229Z,98351.27
2018-02-09T03:49:44.302Z,98352.95
2018-02-09T03:52:12.610Z,98354.60
2018-02-09T03:54:41.690Z,98352.95
2018-02-09T03:57:09.964Z,98349.47
2018-02-09T03:59:38.258Z,98347.82
2018-02-09T04:02:07.348Z,98354.74
2018-02-09T04:04:35.643Z,98352.77
2018-02-09T04:07:04.727Z,98354.66
2018-02-09T04:09:33.809Z,98351.27
2018-02-09T04:12:02.377Z,98339.98
2018-02-09T04:14:30.733Z,98336.12
2018-02-09T04:16:59.052Z,98332.18
2018-02-09T04:19:27.378Z,98337.05
2018-02-09T04:21:55.668Z,98332.55
2018-02-09T04:24:23.994Z,98334.53
2018-02-09T04:26:52.278Z,98333.37
2018-02-09T04:29:21.355Z,98328.32
2018-02-09T04:31:49.724Z,98330.80
2018-02-09T04:34:18.038Z,98327.30
2018-02-09T04:36:47.524Z,98324.42
2018-02-09T04:39:15.815Z,98321.72
2018-02-09T04:41:44.886Z,98319.94
2018-02-09T04:44:13.203Z,98319.06
2018-02-09T04:46:42.249Z,98317.01
2018-02-09T04:49:10.551Z,98317.23
2018-02-09T04:51:38.852Z,98314.30
2018-02-09T04:54:07.900Z,98314.85
2018-02-09T04:56:36.209Z,98305.91
2018-02-09T04:59:04.497Z,98311.59
2018-02-09T05:01:33.540Z,98307.02
2018-02-09T05:04:01.856Z,98307.15
2018-02-09T05:06:30.162Z,98307.19
2018-02-09T05:08:59.222Z,98307.70
2018-02-09T05:11:27.497Z,98317.23
2018-02-09T05:13:55.783Z,98306.45
2018-02-09T05:16:24.094Z,98312.00
2018-02-09T05:18:53.176Z,98309.67
2018-02-09T05:21:22.515Z,98312.27
2018-02-09T05:23:50.825Z,98308.47
2018-02-09T05:26:19.115Z,98308.29
2018-02-09T05:28:47.414Z,98304.05
2018-02-09T05:31:15.692Z,98303.59
2018-02-09T05:33:44.759Z,98303.00
2018-02-09T05:36:13.043Z,98291.20
2018-02-09T05:38:41.685Z,98295.00
2018-02-09T05:41:09.981Z,98294.03
2018-02-09T05:43:38.788Z,98291.70
2018-02-09T05:46:07.080Z,98292.97
2018-02-09T05:48:35.382Z,98288.55
2018-02-09T05:51:03.669Z,98286.97
2018-02-09T05:53:31.964Z,98283.11
2018-02-09T05:56:00.259Z,98281.83
2018-02-09T05:58:28.557Z,98281.55
2018-02-09T06:00:56.847Z,98281.66
2018-02-09T06:03:25.125Z,98275.62
2018-02-09T06:05:53.445Z,98288.20
2018-02-09T06:08:21.781Z,98281.77
2018-02-09T06:10:50.034Z,98284.88
2018-02-09T06:13:18.307Z,98297.95
2018-02-09T06:15:46.590Z,98288.54
2018-02-09T06:18:14.883Z,98291.88
2018-02-09T06:20:43.166Z,98285.34
2018-02-09T06:23:11.435Z,98285.39
2018-02-09T06:25:39.757Z,98285.58
2018-02-09T06:28:08.077Z,98285.34
2018-02-09T06:30:36.397Z,98286.28
2018-02-09T06:33:04.696Z,98290.02
2018-02-09T06:35:33.024Z,98286.39
2018-02-09T06:38:01.311Z,98288.65
2018-02-09T06:40:29.611Z,98286.49
2018-02-09T06:42:57.890Z,98287.49
2018-02-09T06:45:26.163Z,98296.98
2018-02-09T06:47:55.246Z,98292.63
2018-02-09T06:50:23.528Z,98291.81
2018-02-09T06:52:51.848Z,98292.17
2018-02-09T06:55:20.164Z,98292.28
2018-02-09T06:57:52.164Z,98292.16
2018-02-09T07:00:20.462Z,98290.89
2018-02-09T07:02:48.775Z,98295.50
2018-02-09T07:05:17.079Z,98285.22
2018-02-09T07:07:45.383Z,98288.65
2018-02-09T07:10:13.656Z,98279.19
2018-02-09T07:12:42.703Z,98272.97
2018-02-09T07:15:11.006Z,98268.98
2018-02-09T07:17:39.309Z,98268.34
2018-02-09T07:20:07.600Z,98267.12
2018-02-09T07:22:35.865Z,98268.59
2018-02-09T07:25:04.936Z,98263.72
2018-02-09T07:27:33.227Z,98260.41
2018-02-09T07:30:01.549Z,98263.02
2018-02-09T07:32:29.822Z,98259.70
2018-02-09T07:34:58.098Z,98255.49
2018-02-09T07:37:26.397Z,98253.61
2018-02-09T07:39:54.701Z,98242.38
2018-02-09T07:42:22.994Z,98248.29
2018-02-09T07:44:51.270Z,98243.13
2018-02-09T07:47:20.360Z,98240.58
2018-02-09T07:49:48.935Z,98247.00
2018-02-09T07:52:17.199Z,98246.47
2018-02-09T07:54:45.493Z,98243.41
2018-02-09T07:57:13.816Z,98241.77
2018-02-09T07:59:42.193Z,98244.69
2018-02-09T08:02:10.487Z,98241.08
2018-02-09T08:04:38.755Z,98246.16
2018-02-09T08:07:07.055Z,98237.50
2018-02-09T08:09:35.350Z,98239.88
2018-02-09T08:12:03.662Z,98246.48
2018-02-09T08:14:31.980Z,98244.78
2018-02-09T08:17:00.306Z,98252.17
2018-02-09T08:19:28.602Z,98243.80
2018-02-09T08:21:57.652Z,98245.64
2018-02-09T08:24:25.962Z,98241.21
2018-02-09T08:26:54.253Z,98241.53
2018-02-09T08:29:22.557Z,98239.04
2018-02-09T08:31:50.867Z,98238.25
2018-02-09T08:34:19.161Z,98230.97
2018-02-09T08:36:47.473Z,98231.66
2018-02-09T08:39:15.775Z,98226.51
2018-02-09T08:41:44.077Z,98224.29
2018-02-09T08:44:12.392Z,98222.23
2018-02-09T08:46:40.689Z,98225.22
2018-02-09T08:49:09.754Z,98223.44
2018-02-09T08:51:38.057Z,98219.41
2018-02-09T08:54:06.333Z,98217.00
2018-02-09T08:56:34.626Z,98207.47
2018-02-09T08:59:02.948Z,98207.16
2018-02-09T09:01:31.232Z,98205.50
2018-02-09T09:03:59.513Z,98199.66
2018-02-09T09:06:27.807Z,98203.84
2018-02-09T09:08:56.119Z,98201.41
2018-02-09T09:11:24.837Z,98202.08
2018-02-09T09:13:53.138Z,98199.45
2018-02-09T09:16:21.437Z,98196.11
2018-02-09T09:18:49.722Z,98200.80
2018-02-09T09:21:18.769Z,98192.41
2018-02-09T09:23:47.064Z,98196.95
2018-02-09T09:26:15.371Z,98193.81
2018-02-09T09:28:43.685Z,98192.88
2018-02-09T09:31:11.973Z,98189.95
2018-02-09T09:33:40.304Z,98183.92
2018-02-09T09:36:09.350Z,98194.44
2018-02-09T09:38:37.657Z,98186.25
2018-02-09T09:41:05.948Z,98189.84
2018-02-09T09:43:34.245Z,98190.24
2018-02-09T09:46:02.545Z,98185.94
2018-02-09T09:48:30.825Z,98184.89
2018-02-09T09:50:59.120Z,98177.80
2018-02-09T09:53:27.404Z,98175.67
2018-02-09T09:55:55.686Z,98169.61
2018-02-09T09:58:24.007Z,98174.59
2018-02-09T10:00:52.286Z,98174.80
2018-02-09T10:03:20.581Z,98168.30
2018-02-09T10:05:48.859Z,98168.92
2018-02-09T10:08:17.156Z,98166.59
2018-02-09T10:10:45.454Z,98165.89
2018-02-09T10:13:13.739Z,98164.08
2018-02-09T10:15:42.036Z,98159.45
2018-02-09T10:18:10.325Z,98160.69
2018-02-09T10:20:38.616Z,98158.02
2018-02-09T10:23:07.691Z,98164.19
2018-02-09T10:25:35.989Z,98150.84
2018-02-09T10:28:05.064Z,98149.83
2018-02-09T10:30:33.346Z,98144.68
2018-02-09T10:33:02.688Z,98142.00
2018-02-09T10:35:30.986Z,98147.15
2018-02-09T10:37:59.250Z,98142.21
2018-02-09T10:40:27.533Z,98146.84
2018-02-09T10:42:55.813Z,98136.28
2018-02-09T10:45:24.099Z,98138.05
2018-02-09T10:47:52.389Z,98130.06
2018-02-09T10:50:20.698Z,98133.45
2018-02-09T10:52:48.984Z,98129.65
2018-02-09T10:55:17.279Z,98130.25
2018-02-09T10:57:45.605Z,98128.97
2018-02-09T11:00:13.919Z,98118.22
2018-02-09T11:02:42.999Z,98120.85
2018-02-09T11:05:11.290Z,98116.02
2018-02-09T11:07:40.354Z,98109.89
2018-02-09T11:10:14.100Z,98106.44
2018-02-09T11:12:43.157Z,98107.24
2018-02-09T11:15:11.461Z,98109.37
2018-02-09T11:17:39.775Z,98105.92
2018-02-09T11:20:08.075Z,98100.05
2018-02-09T11:22:36.373Z,98093.45
2018-02-09T11:25:04.674Z,98096.75
2018-02-09T11:27:32.951Z,98097.22
2018-02-09T11:30:02.026Z,98094.80
2018-02-09T11:32:30.320Z,98085.36
2018-02-09T11:34:58.612Z,98089.94
2018-02-09T11:37:27.680Z,98088.98
2018-02-09T11:39:55.986Z,98082.89
2018-02-09T11:42:25.088Z,98084.12
2018-02-09T11:44:53.384Z,98076.50
2018-02-09T11:47:21.672Z,98077.49
2018-02-09T11:49:49.997Z,98072.29
2018-02-09T11:52:18.271Z,98074.55
2018-02-09T11:54:46.572Z,98072.34
2018-02-09T11:57:15.656Z,98077.07
2018-02-09T11:59:43.962Z,98074.13
2018-02-09T12:02:12.345Z,98074.06
2018-02-09T12:04:41.384Z,98078.66
2018-02-09T12:07:09.672Z,98070.95
2018-02-09T12:09:37.964Z,98071.36
2018-02-09T12:12:06.251Z,98070.27
2018-02-09T12:14:34.550Z,98069.23
2018-02-09T12:17:02.859Z,98058.15
2018-02-09T12:19:31.143Z,98053.34
2018-02-09T12:21:59.425Z,98054.78
2018-02-09T12:24:27.729Z,98051.00
2018-02-09T12:26:56.290Z,98054.01
2018-02-09T12:29:24.572Z,98043.41
2018-02-09T12:31:52.862Z,98044.84
2018-02-09T12:34:21.167Z,98041.90
2018-02-09T12:36:49.452Z,98044.47
2018-02-09T12:39:17.760Z,98034.53
2018-02-09T12:41:46.028Z,98036.84
2018-02-09T12:44:14.317Z,98031.72
2018-02-09T12:46:42.641Z,98025.28
2018-02-09T12:49:10.933Z,98025.17
2018-02-09T12:51:40.037Z,98025.78
2018-02-09T12:54:09.108Z,98018.29
2018-02-09T12:56:37.390Z,98014.72
2018-02-09T12:59:05.749Z,98009.21
2018-02-09T13:01:34.060Z,98004.76
2018-02-09T13:04:03.142Z,98011.14
2018-02-09T13:06:31.443Z,97999.40
2018-02-09T13:09:00.503Z,98001.39
2018-02-09T13:11:28.811Z,97998.60
2018-02-09T13:13:57.910Z,97993.66
2018-02-09T13:16:26.332Z,97996.23
2018-02-09T13:18:55.378Z,97994.06
2018-02-09T13:21:24.312Z,97994.41
2018-02-09T13:24:10.202Z,97993.48
2018-02-09T13:26:38.542Z,97994.83
2018-02-09T13:29:06.804Z,97988.93
2018-02-09T13:31:35.143Z,97985.69
2018-02-09T13:34:03.445Z,97991.95
2018-02-09T13:39:56.315Z,97986.02
2018-02-09T13:42:24.623Z,97987.39
2018-02-09T13:44:52.977Z,97989.87
2018-02-09T13:47:21.301Z,97986.79
2018-02-09T13:49:49.609Z,97986.23
2018-02-09T13:52:17.890Z,97985.64
2018-02-09T13:54:46.268Z,97989.95
2018-02-09T13:57:14.583Z,97985.55
2018-02-09T13:59:43.294Z,97988.92
2018-02-09T14:02:11.643Z,97988.37
2018-02-09T14:04:39.950Z,97988.32
2018-02-09T14:07:09.048Z,97985.14
2018-02-09T14:09:38.159Z,97980.66
2018-02-09T14:12:06.448Z,97979.59
2018-02-09T14:14:34.837Z,97980.87
2018-02-09T14:17:03.161Z,97974.91
2018-02-09T14:19:31.472Z,97973.34
2018-02-09T14:21:59.755Z,97971.80
2018-02-09T14:24:31.487Z,97971.09
2018-02-09T14:26:59.773Z,97968.05
2018-02-09T14:29:28.864Z,97965.20
2018-02-09T14:31:57.549Z,97967.66
2018-02-09T14:34:25.959Z,97966.09
2018-02-09T14:36:55.005Z,97966.99
2018-02-09T14:39:23.309Z,97967.44
2018-02-09T14:41:51.594Z,97968.55
2018-02-09T14:44:20.696Z,97963.85
2018-02-09T14:46:49.036Z,97972.27
2018-02-09T14:49:17.305Z,97975.86
2018-02-09T14:51:45.667Z,97976.91
2018-02-09T14:54:13.903Z,97976.22
2018-02-09T14:56:42.226Z,97970.78
2018-02-09T14:59:10.525Z,97970.25
2018-02-09T15:01:38.792Z,97972.95
2018-02-09T15:04:07.114Z,97966.23
2018-02-09T15:06:35.549Z,97971.05
2018-02-09T15:09:03.848Z,97971.73
2018-02-09T15:11:32.130Z,97974.17
2018-02-09T15:14:00.429Z,97970.64
2018-02-09T15:16:29.474Z,97970.92
2018-02-09T15:18:57.762Z,97973.09
2018-02-09T15:21:26.071Z,97971.13
2018-02-09T15:23:54.363Z,97976.47
2018-02-09T15:26:23.458Z,97971.81
2018-02-09T15:28:51.817Z,97972.13
2018-02-09T15:31:20.108Z,97971.05
2018-02-09T15:33:48.411Z,97973.77
2018-02-09T15:36:16.718Z,97980.41
2018-02-09T15:38:45.019Z,97977.97
2018-02-09T15:41:13.338Z,97977.02
2018-02-09T15:43:42.416Z,97978.84
2018-02-09T15:46:10.680Z,97977.15
2018-02-09T15:48:40.706Z,97978.53
2018-02-09T15:51:08.975Z,97977.77
2018-02-09T15:53:37.293Z,97979.14
2018-02-09T15:56:06.354Z,97977.36
2018-02-09T15:58:34.635Z,97977.56
2018-02-09T16:01:02.955Z,97982.85
2018-02-09T16:03:31.243Z,97981.24
2018-02-09T16:05:59.534Z,97974.37
2018-02-09T16:08:27.842Z,97976.75
2018-02-09T16:10:56.116Z,97973.30
2018-02-09T16:13:24.419Z,97976.97
2018-02-09T16:15:53.441Z,97975.00
2018-02-09T16:18:21.756Z,97975.86
2018-02-09T16:20:50.047Z,97981.36
2018-02-09T16:23:18.328Z,97976.48
2018-02-09T16:25:46.605Z,97981.02
2018-02-09T16:28:14.895Z,97976.95
2018-02-09T16:30:43.188Z,97981.64
2018-02-09T16:33:12.273Z,97983.47
2018-02-09T16:35:40.555Z,97976.91
2018-02-09T16:38:08.856Z,97980.82
2018-02-09T16:40:37.148Z,97981.91
2018-02-09T16:43:05.439Z,97983.45
2018-02-09T16:45:33.695Z,97985.70
2018-02-09T16:48:02.005Z,97985.38
2018-02-09T16:50:30.861Z,97984.50
2018-02-09T16:52:59.126Z,97986.66
2018-02-09T16:55:28.218Z,97981.37
2018-02-09T16:57:56.484Z,97988.02
2018-02-09T17:00:26.493Z,97988.02
2018-02-09T17:02:54.802Z,97992.34
2018-02-09T17:05:24.609Z,97991.67
2018-02-09T17:07:52.889Z,97996.08
2018-02-09T17:10:21.222Z,97990.23
2018-02-09T17:12:49.537Z,97994.52
2018-02-09T17:15:18.588Z,97999.14
2018-02-09T17:17:46.859Z,98004.92
2018-02-09T17:20:15.149Z,98003.06
2018-02-09T17:22:43.434Z,98002.87
2018-02-09T17:25:11.771Z,98003.28
2018-02-09T17:27:40.053Z,98002.67
2018-02-09T17:30:08.332Z,98003.08
2018-02-09T17:32:36.630Z,98008.48
2018-02-09T17:35:04.921Z,98010.23
2018-02-09T17:37:33.232Z,98015.79
2018-02-09T17:40:01.514Z,98006.55
2018-02-09T17:42:29.793Z,98004.06
2018-02-09T17:44:58.856Z,98007.05
2018-02-09T17:47:27.165Z,98003.99
2018-02-09T17:49:56.212Z,98011.05
2018-02-09T17:52:24.469Z,98003.45
2018-02-09T17:54:53.323Z,98009.34
2018-02-09T17:57:21.628Z,98008.07
2018-02-09T17:59:49.892Z,98010.05
2018-02-09T18:02:18.953Z,98010.59
2018-02-09T18:04:47.258Z,98015.61
2018-02-09T18:07:15.569Z,98011.33
2018-02-09T18:09:43.893Z,98014.78
2018-02-09T18:12:12.194Z,98009.42
2018-02-09T18:14:41.249Z,97999.11
2018-02-09T18:17:09.536Z,98009.63
2018-02-09T18:19:38.322Z,98007.68
2018-02-09T18:22:06.681Z,98007.45
2018-02-09T18:24:34.969Z,98001.73
2018-02-09T18:27:03.315Z,98004.56
2018-02-09T18:29:31.658Z,98011.50
2018-02-09T18:32:00.841Z,98012.44
2018-02-09T18:34:29.168Z,98005.30
2018-02-09T18:36:57.667Z,98010.47
2018-02-09T18:39:26.043Z,98004.85
2018-02-09T18:41:54.378Z,98013.00
2018-02-09T18:44:22.731Z,98007.96
2018-02-09T18:46:51.073Z,98011.58
2018-02-09T18:49:20.142Z,98016.88
2018-02-09T18:51:49.225Z,98012.25
2018-02-09T18:54:17.528Z,98018.02
2018-02-09T18:56:45.846Z,98019.52
2018-02-09T18:59:14.166Z,98025.93
2018-02-09T19:01:42.477Z,98031.23
2018-02-09T19:04:10.780Z,98034.94
2018-02-09T19:06:39.052Z,98035.03
2018-02-09T19:09:07.354Z,98030.98
2018-02-09T19:11:35.697Z,98033.63
2018-02-09T19:14:05.642Z,98036.14
2018-02-09T19:16:33.995Z,98033.52
2018-02-09T19:19:02.257Z,98038.95
2018-02-09T19:21:30.570Z,98038.84
2018-02-09T19:23:58.837Z,98038.16
2018-02-09T19:26:31.165Z,98040.03
2018-02-09T19:29:01.472Z,98034.98
2018-02-09T19:31:29.791Z,98039.48
2018-02-09T19:33:58.102Z,98044.90
2018-02-09T19:36:26.375Z,98043.31
2018-02-09T19:38:54.688Z,98049.41
2018-02-09T19:41:22.964Z,98056.11
2018-02-09T19:43:51.280Z,98052.44
2018-02-09T19:46:20.375Z,98056.19
2018-02-09T19:48:49.405Z,98054.19
2018-02-09T19:51:17.707Z,98056.24
2018-02-09T19:53:45.996Z,98054.09
2018-02-09T19:56:14.303Z,98063.31
2018-02-09T19:58:43.524Z,98054.78
2018-02-09T20:01:12.082Z,98055.73
2018-02-09T20:03:40.364Z,98060.62
2018-02-09T20:06:08.688Z,98061.25
2018-02-09T20:08:37.043Z,98057.66
2018-02-09T20:11:05.369Z,98060.00
2018-02-09T20:13:34.247Z,98070.49
2018-02-09T20:16:02.567Z,98061.34
2018-02-09T20:18:31.606Z,98072.61
2018-02-09T20:20:59.899Z,98073.64
2018-02-09T20:23:28.215Z,98068.64
2018-02-09T20:25:56.559Z,98070.19
2018-02-09T20:28:25.392Z,98073.38
2018-02-09T20:30:53.698Z,98072.86
2018-02-09T20:33:22.154Z,98074.16
2018-02-09T20:35:51.300Z,98072.36
2018-02-09T20:38:20.499Z,98069.11
2018-02-09T20:40:48.786Z,98065.09
2018-02-09T20:43:17.067Z,98065.30
2018-02-09T20:45:45.373Z,98064.54
2018-02-09T20:48:14.526Z,98062.53
2018-02-09T20:50:42.811Z,98059.75
2018-02-09T20:53:11.155Z,98064.33
2018-02-09T20:55:39.451Z,98067.27
2018-02-09T20:58:07.768Z,98061.87
2018-02-09T21:00:36.141Z,98057.73
2018-02-09T21:03:04.431Z,98061.08
2018-02-09T21:05:32.810Z,98054.48
2018-02-09T21:08:02.039Z,98059.17
2018-02-09T21:10:30.373Z,98060.52
2018-02-09T21:12:58.660Z,98060.67
2018-02-09T21:15:28.102Z,98063.00
2018-02-09T21:17:56.827Z,98063.80
2018-02-09T21:20:25.200Z,98069.20
2018-02-09T21:22:53.552Z,98064.52
2018-02-09T21:25:22.146Z,98062.73
2018-02-09T21:27:50.473Z,98068.44
2018-02-09T21:30:18.868Z,98074.52
2018-02-09T21:32:47.973Z,98061.56
2018-02-09T21:35:17.165Z,98073.91
2018-02-09T21:37:47.053Z,98062.22
2018-02-09T21:40:18.032Z,98067.62
2018-02-09T21:42:46.555Z,98067.55
2018-02-09T21:45:14.914Z,98071.84
2018-02-09T21:47:43.645Z,98070.86
2018-02-09T21:50:11.984Z,98067.37
2018-02-09T21:52:40.340Z,98069.31
2018-02-09T21:55:09.104Z,98068.44
2018-02-09T21:57:37.404Z,98070.09
2018-02-09T22:00:05.882Z,98075.74
2018-02-09T22:02:34.965Z,98075.14
2018-02-09T22:05:03.712Z,98076.01
2018-02-09T22:07:32.034Z,98079.66
2018-02-09T22:10:00.342Z,98076.22
2018-02-09T22:12:28.674Z,98082.70
2018-02-09T22:14:57.086Z,98082.14
2018-02-09T22:17:26.174Z,98079.70
2018-02-09T22:19:54.488Z,98087.64
2018-02-09T22:22:22.880Z,98084.08
2018-02-09T22:24:51.262Z,98090.12
2018-02-09T22:27:19.586Z,98091.72
2018-02-09T22:29:47.901Z,98092.48
2018-02-09T22:32:16.166Z,98090.53
2018-02-09T22:34:44.568Z,98098.30
2018-02-09T22:37:12.907Z,98095.57
2018-02-09T22:39:41.226Z,98099.59
2018-02-09T22:42:09.567Z,98094.02
2018-02-09T22:44:38.685Z,98095.16
2018-02-09T22:47:06.963Z,98095.20
2018-02-09T22:49:35.319Z,98093.97
2018-02-09T22:52:03.670Z,98097.63
2018-02-09T22:54:32.564Z,98099.48
2018-02-09T22:57:01.724Z,98103.45
2018-02-09T22:59:30.079Z,98104.63
2018-02-09T23:02:00.050Z,98102.72
2018-02-09T23:04:28.401Z,98101.90
2018-02-09T23:06:56.719Z,98098.66
2018-02-09T23:09:25.025Z,98096.55
2018-02-09T23:11:53.918Z,98101.84
2018-02-09T23:14:23.040Z,98100.56
2018-02-09T23:16:51.809Z,98105.45
2018-02-09T23:19:21.165Z,98108.17
2018-02-09T23:21:49.530Z,98111.11
2018-02-09T23:24:17.857Z,98103.03
2018-02-09T23:26:46.378Z,98106.52
2018-02-09T23:29:14.721Z,98108.95
2018-02-09T23:31:43.073Z,98102.73
2018-02-09T23:34:11.348Z,98100.15
2018-02-09T23:36:40.963Z,98107.57
2018-02-09T23:39:10.576Z,98109.05
2018-02-09T23:41:39.315Z,98108.43
2018-02-09T23:44:07.641Z,98107.97
2018-02-09T23:46:35.940Z,98112.13
2018-02-09T23:49:04.404Z,98113.53
2018-02-09T23:51:33.094Z,98113.02
2018-02-09T23:54:01.387Z,98117.34
2018-02-09T23:56:30.232Z,98111.47
2018-02-09T23:58:58.504Z,98116.21
